PTB weather

Dinwiddie County Airport
Petersburg, Virginia, United States

Public forecast

Using degrees Fahrenheit for public forecast. Weather courtesy of forecast.io.

METAR (pilot weather report)

Retrieved 2019/05/26 04:35 UTC (16 minutes ago):

KPTB 260435Z AUTO 00000KT 10SM SCT060 SCT120 24/19 A3007 RMK AO2 LTG DSNT N AND W T02380185

TAF (pilot weather forecast)

Forecast is more than 12 hours old.

Closest forecast is Richmond International Airport, 21.3 nm (39.4 km) NNE. Retrieved 2019/05/25 00:22 UTC (1 day ago):

TAF KRIC 252320Z 2600/2624 14008KT P6SM SCT050 BKN150 FM260400 18007KT P6SM BKN250 FM261200 22005KT P6SM SCT100 FM261500 27007KT P6SM SCT050